Orbital elements of COSMOS 1275 DEB
| Launched | 3 June 1981 |
| Flight ended | – |
| Launch site | Plesetsk Missile and Space Complex, Russia |
| Owner | Commonwealth of Independent States (former USSR) |
| NORAD ID | 14504 |
| Date fetched |
Epoch osculation |
Inc. [°] |
Ecc. | RA asc node [hr] |
Arg Peri. [°] |
Mean anom [°] |
Mean motion [rev/day] |
Abs. mag |
| Date fetched |
Epoch osculation |
Inc. [°] |
Ecc. | RA asc node [hr] |
Arg Peri. [°] |
Mean anom [°] |
Mean motion [rev/day] |
Abs. mag |
| 2026 May 01 17:56 | 2026 Apr 30 03:37:18 | 83.1941 | 0.00212 | 0.7109 | 192.6438 | 319.5513 | 14.07796 | – |
| 2026 Apr 30 17:56 | 2026 Apr 30 03:37:18 | 83.1941 | 0.00212 | 0.7109 | 192.6438 | 319.5513 | 14.07796 | – |
| 2026 Apr 29 17:57 | 2026 Apr 24 04:20:37 | 83.1943 | 0.00207 | 1.0114 | 211.0279 | 319.5513 | 14.07796 | – |
| 2026 Apr 28 17:56 | 2026 Apr 24 04:20:37 | 83.1943 | 0.00207 | 1.0114 | 211.0279 | 319.5513 | 14.07796 | – |
| 2026 Apr 27 17:58 | 2026 Apr 24 04:20:37 | 83.1943 | 0.00207 | 1.0114 | 211.0279 | 319.5513 | 14.07796 | – |
| 2026 Apr 26 17:58 | 2026 Apr 24 04:20:37 | 83.1943 | 0.00207 | 1.0114 | 211.0279 | 319.5513 | 14.07796 | – |
| 2026 Apr 25 17:58 | 2026 Apr 24 04:20:37 | 83.1943 | 0.00207 | 1.0114 | 211.0279 | 319.5513 | 14.07796 | – |
| 2026 Apr 24 17:59 | 2026 Apr 24 04:20:37 | 83.1943 | 0.00207 | 1.0114 | 211.0279 | 319.5513 | 14.07796 | – |
| 2026 Apr 23 17:57 | 2026 Apr 19 11:52:39 | 83.1944 | 0.00204 | 1.2472 | 225.6260 | 319.5513 | 14.07796 | – |
| 2026 Apr 22 17:57 | 2026 Apr 19 11:52:39 | 83.1944 | 0.00204 | 1.2472 | 225.6260 | 319.5513 | 14.07796 | – |
| 2026 Apr 21 17:57 | 2026 Apr 19 11:52:39 | 83.1944 | 0.00204 | 1.2472 | 225.6260 | 319.5513 | 14.07796 | – |
| 2026 Apr 20 17:57 | 2026 Apr 19 11:52:39 | 83.1944 | 0.00204 | 1.2472 | 225.6260 | 319.5513 | 14.07796 | – |
| 2026 Apr 19 17:58 | 2026 Apr 19 11:52:39 | 83.1944 | 0.00204 | 1.2472 | 225.6260 | 319.5513 | 14.07796 | – |
| 2026 Apr 18 17:56 | 2026 Apr 12 18:49:02 | 83.1943 | 0.00201 | 1.5849 | 246.7968 | 319.5513 | 14.07796 | – |
| 2026 Apr 16 17:57 | 2026 Apr 12 18:49:02 | 83.1943 | 0.00201 | 1.5849 | 246.7968 | 319.5513 | 14.07796 | – |
| 2026 Apr 14 17:57 | 2026 Apr 12 18:49:02 | 83.1943 | 0.00201 | 1.5849 | 246.7968 | 319.5513 | 14.07796 | – |
| 2026 Apr 13 17:57 | 2026 Apr 12 18:49:02 | 83.1943 | 0.00201 | 1.5849 | 246.7968 | 319.5513 | 14.07796 | – |
| 2026 Apr 12 17:57 | 2026 Apr 08 13:10:55 | 83.1943 | 0.00200 | 1.7981 | 260.1347 | 319.5513 | 14.07796 | – |
| 2026 Apr 11 17:57 | 2026 Apr 08 13:10:55 | 83.1943 | 0.00200 | 1.7981 | 260.1347 | 319.5513 | 14.07796 | – |
| 2026 Apr 10 17:58 | 2026 Apr 08 13:10:55 | 83.1943 | 0.00200 | 1.7981 | 260.1347 | 319.5513 | 14.07796 | – |
| 2026 Apr 09 18:01 | 2026 Apr 08 13:10:55 | 83.1943 | 0.00200 | 1.7981 | 260.1347 | 319.5513 | 14.07796 | – |
| 2026 Apr 08 17:57 | 2026 Apr 08 13:10:55 | 83.1943 | 0.00200 | 1.7981 | 260.1347 | 319.5513 | 14.07796 | – |
| 2026 Apr 07 17:57 | 2026 Apr 02 02:52:53 | 83.1941 | 0.00198 | 2.1216 | 280.6761 | 319.5513 | 14.07796 | – |
| 2026 Apr 06 17:57 | 2026 Apr 02 02:52:53 | 83.1941 | 0.00198 | 2.1216 | 280.6761 | 319.5513 | 14.07796 | – |
| 2026 Apr 05 17:56 | 2026 Apr 02 02:52:53 | 83.1941 | 0.00198 | 2.1216 | 280.6761 | 319.5513 | 14.07796 | – |
| 2026 Apr 04 17:57 | 2026 Apr 02 02:52:53 | 83.1941 | 0.00198 | 2.1216 | 280.6761 | 319.5513 | 14.07796 | – |